createdAt,value
2022-09-13T00:02:10.729Z,4.57
2022-09-13T00:07:15.405Z,4.35
2022-09-13T00:12:23.059Z,5.82
2022-09-13T00:17:28.159Z,6.40
2022-09-13T00:22:32.364Z,6.28
2022-09-13T00:27:38.417Z,6.90
2022-09-13T00:32:43.419Z,7.63
2022-09-13T00:37:48.445Z,8.43
2022-09-13T00:42:53.076Z,7.30
2022-09-13T00:48:07.177Z,6.55
2022-09-13T00:53:25.486Z,7.35
2022-09-13T00:58:43.753Z,7.88
2022-09-13T01:03:49.863Z,7.32
2022-09-13T01:08:55.186Z,6.75
2022-09-13T01:13:59.460Z,6.90
2022-09-13T01:19:03.313Z,6.72
2022-09-13T01:24:44.907Z,6.40
2022-09-13T01:30:01.944Z,6.43
2022-09-13T01:35:29.455Z,6.38
2022-09-13T01:40:52.627Z,6.03
2022-09-13T01:46:45.873Z,5.50
2022-09-13T01:52:33.636Z,6.00
2022-09-13T01:57:42.520Z,6.10
2022-09-13T02:03:08.628Z,6.25
2022-09-13T02:08:31.840Z,3.90
2022-09-13T02:13:39.937Z,5.80
2022-09-13T02:18:48.499Z,5.38
2022-09-13T02:23:55.848Z,5.43
2022-09-13T02:29:04.337Z,4.85
2022-09-13T02:39:23.599Z,4.60
2022-09-13T02:44:40.497Z,3.88
2022-09-13T02:50:06.873Z,3.92
2022-09-13T02:55:41.479Z,4.35
2022-09-13T03:00:47.226Z,3.55
2022-09-13T03:05:51.884Z,3.78
2022-09-13T03:11:12.923Z,5.97
2022-09-13T03:16:45.660Z,5.75
2022-09-13T03:22:16.631Z,6.43
2022-09-13T03:27:42.966Z,5.32
2022-09-13T03:33:27.637Z,5.53
2022-09-13T03:38:41.928Z,6.38
2022-09-13T03:43:51.024Z,6.75
2022-09-13T03:48:56.693Z,6.55
2022-09-13T03:54:05.432Z,6.55
2022-09-13T03:59:10.174Z,7.00
2022-09-13T04:04:13.942Z,7.10
2022-09-13T04:09:18.703Z,7.50
2022-09-13T04:14:24.651Z,8.95
2022-09-13T04:19:29.711Z,8.30
2022-09-13T04:24:34.820Z,8.32
2022-09-13T04:29:39.260Z,9.23
2022-09-13T04:34:44.926Z,11.63
2022-09-13T04:39:49.975Z,14.75
2022-09-13T04:44:55.931Z,13.63
2022-09-13T04:50:00.947Z,13.27
2022-09-13T04:55:05.730Z,11.07
2022-09-13T05:00:10.801Z,10.07
2022-09-13T05:05:16.466Z,8.93
2022-09-13T05:10:19.982Z,7.90
2022-09-13T05:15:24.689Z,7.57
2022-09-13T05:20:29.697Z,8.70
2022-09-13T05:25:34.524Z,7.05
2022-09-13T05:30:42.244Z,6.90
2022-09-13T05:35:46.757Z,7.35
2022-09-13T05:40:59.759Z,6.00
2022-09-13T05:46:11.354Z,6.85
2022-09-13T05:51:18.627Z,7.00
2022-09-13T05:56:24.777Z,5.68
2022-09-13T06:01:30.734Z,6.07
2022-09-13T06:06:36.975Z,4.90
2022-09-13T06:11:44.721Z,4.90
2022-09-13T06:16:51.623Z,4.80
2022-09-13T06:21:55.748Z,6.17
2022-09-13T06:27:00.001Z,5.75
2022-09-13T06:32:07.642Z,4.97
2022-09-13T06:37:11.362Z,5.75
2022-09-13T06:42:16.068Z,6.05
2022-09-13T06:47:20.802Z,6.00
2022-09-13T06:52:25.703Z,4.90
2022-09-13T06:57:32.669Z,6.97
2022-09-13T07:02:42.126Z,5.10
2022-09-13T07:07:47.151Z,5.68
2022-09-13T07:12:52.728Z,4.68
2022-09-13T07:17:57.750Z,4.78
2022-09-13T07:23:03.202Z,4.85
2022-09-13T07:28:09.203Z,4.68
2022-09-13T07:33:17.914Z,4.50
2022-09-13T07:38:22.433Z,5.30
2022-09-13T07:43:29.847Z,5.85
2022-09-13T07:48:40.604Z,6.13
2022-09-13T07:53:51.495Z,5.40
2022-09-13T07:58:58.258Z,6.05
2022-09-13T08:04:07.275Z,5.45
2022-09-13T08:09:13.307Z,6.13
2022-09-13T08:14:21.412Z,4.18
2022-09-13T08:19:29.117Z,5.53
2022-09-13T08:24:34.309Z,6.30
2022-09-13T08:29:40.146Z,6.35
2022-09-13T08:34:47.408Z,6.75
2022-09-13T08:39:52.085Z,7.05
2022-09-13T08:44:58.427Z,7.38
2022-09-13T08:50:16.468Z,8.07
2022-09-13T08:55:50.203Z,8.70
2022-09-13T09:01:05.199Z,8.07
2022-09-13T09:06:15.507Z,10.23
2022-09-13T09:11:52.542Z,9.23
2022-09-13T09:17:08.978Z,9.10
2022-09-13T09:22:21.094Z,10.38
2022-09-13T09:27:25.524Z,8.95
2022-09-13T09:32:52.247Z,8.48
2022-09-13T09:38:13.410Z,9.43
2022-09-13T09:43:39.644Z,9.57
2022-09-13T09:48:51.301Z,8.55
2022-09-13T09:54:02.987Z,8.73
2022-09-13T09:59:29.343Z,8.98
2022-09-13T10:04:34.283Z,10.48
2022-09-13T10:09:40.407Z,9.35
2022-09-13T10:14:47.768Z,9.90
2022-09-13T10:20:04.779Z,10.25
2022-09-13T10:25:28.444Z,9.23
2022-09-13T10:30:59.177Z,8.20
2022-09-13T10:36:06.872Z,8.90
2022-09-13T10:41:23.644Z,7.80
2022-09-13T10:46:30.824Z,7.70
2022-09-13T10:51:38.693Z,7.93
2022-09-13T10:56:47.438Z,7.88
2022-09-13T11:01:57.679Z,7.85
2022-09-13T11:07:10.746Z,6.97
2022-09-13T11:12:27.707Z,6.65
2022-09-13T11:18:10.316Z,7.30
2022-09-13T11:23:40.756Z,7.40
2022-09-13T11:29:09.823Z,6.78
2022-09-13T11:34:23.844Z,6.78
2022-09-13T11:39:37.132Z,7.47
2022-09-13T11:45:21.932Z,7.13
2022-09-13T11:50:58.168Z,7.45
2022-09-13T11:56:40.142Z,8.32
2022-09-13T12:01:53.297Z,7.80
2022-09-13T12:07:03.178Z,6.93
2022-09-13T12:12:11.290Z,6.82
2022-09-13T12:17:34.784Z,6.95
2022-09-13T12:22:38.869Z,8.02
2022-09-13T12:28:12.947Z,6.72
2022-09-13T12:33:17.994Z,6.70
2022-09-13T12:38:58.581Z,6.20
2022-09-13T12:44:21.094Z,6.97
2022-09-13T12:49:37.867Z,8.18
2022-09-13T12:55:35.688Z,9.40
2022-09-13T13:00:48.226Z,6.97
2022-09-13T13:06:09.465Z,7.75
2022-09-13T13:11:14.488Z,7.43
2022-09-13T13:16:41.455Z,12.73
2022-09-13T13:21:45.530Z,7.43
2022-09-13T13:26:58.250Z,6.80
2022-09-13T13:32:04.641Z,7.00
2022-09-13T13:37:12.087Z,6.18
2022-09-13T13:42:27.520Z,5.50
2022-09-13T13:47:33.555Z,6.03
2022-09-13T13:52:41.063Z,5.25
2022-09-13T13:58:10.208Z,7.05
2022-09-13T14:03:36.658Z,6.28
2022-09-13T14:08:44.407Z,7.23
2022-09-13T14:14:05.441Z,5.50
2022-09-13T14:19:27.688Z,32.03
2022-09-13T14:24:32.716Z,39.97
2022-09-13T14:29:37.746Z,17.17
2022-09-13T14:34:42.377Z,19.23
2022-09-13T14:40:19.578Z,10.50
2022-09-13T14:45:34.691Z,69.33
2022-09-13T14:50:43.765Z,24.08
2022-09-13T14:56:01.155Z,8.38
2022-09-13T15:01:09.877Z,21.47
2022-09-13T15:06:28.448Z,12.80
2022-09-13T15:11:35.646Z,10.98
2022-09-13T15:16:55.567Z,10.55
2022-09-13T15:22:10.907Z,25.48
2022-09-13T15:27:46.420Z,32.28
2022-09-13T15:32:51.167Z,30.10
2022-09-13T15:38:03.298Z,31.02
2022-09-13T15:43:07.985Z,23.02
2022-09-13T15:48:21.976Z,30.20
2022-09-13T15:53:27.623Z,11.85
2022-09-13T15:58:33.005Z,23.88
2022-09-13T16:03:37.109Z,20.58
2022-09-13T16:08:41.922Z,9.40
2022-09-13T16:13:46.327Z,10.07
2022-09-13T16:18:50.169Z,14.63
2022-09-13T16:23:54.887Z,17.98
2022-09-13T16:28:59.753Z,21.80
2022-09-13T16:34:03.923Z,11.40
2022-09-13T16:39:08.161Z,14.65
2022-09-13T16:44:13.167Z,15.55
2022-09-13T16:49:17.985Z,15.82
2022-09-13T16:54:22.950Z,15.30
2022-09-13T16:59:27.492Z,13.10
2022-09-13T17:04:31.897Z,16.17
2022-09-13T17:09:36.314Z,14.80
2022-09-13T17:14:48.924Z,13.10
2022-09-13T17:19:53.841Z,12.50
2022-09-13T17:24:57.962Z,15.07
2022-09-13T17:30:03.640Z,14.07
2022-09-13T17:35:09.918Z,9.95
2022-09-13T17:40:14.240Z,11.18
2022-09-13T17:45:18.795Z,12.02
2022-09-13T17:50:23.470Z,10.40
2022-09-13T17:55:28.284Z,10.75
2022-09-13T18:00:33.136Z,13.88
2022-09-13T18:05:36.537Z,12.15
2022-09-13T18:11:03.667Z,12.63
2022-09-13T18:16:21.434Z,12.45
2022-09-13T18:21:27.276Z,11.82
2022-09-13T18:26:36.070Z,13.23
2022-09-13T18:31:42.251Z,12.30
2022-09-13T18:36:47.382Z,13.48
2022-09-13T18:41:52.250Z,14.73
2022-09-13T18:46:57.200Z,15.93
2022-09-13T18:52:00.684Z,15.05
2022-09-13T18:57:05.454Z,16.95
2022-09-13T19:02:11.830Z,16.90
2022-09-13T19:07:16.714Z,11.80
2022-09-13T19:12:21.514Z,16.33
2022-09-13T19:17:26.282Z,14.60
2022-09-13T19:22:29.793Z,15.20
2022-09-13T19:27:34.766Z,15.52
2022-09-13T19:32:39.578Z,15.48
2022-09-13T19:37:44.457Z,14.25
2022-09-13T19:42:49.088Z,13.93
2022-09-13T19:48:34.581Z,13.98
2022-09-13T19:53:18.237Z,14.27
2022-09-13T19:58:22.924Z,15.70
2022-09-13T20:03:27.704Z,14.52
2022-09-13T20:08:32.720Z,14.50
2022-09-13T20:13:37.695Z,14.90
2022-09-13T20:18:40.995Z,14.00
2022-09-13T20:23:45.766Z,13.48
2022-09-13T20:28:50.803Z,12.93
2022-09-13T20:33:59.268Z,15.25
2022-09-13T20:39:04.726Z,15.73
2022-09-13T20:44:08.451Z,14.85
2022-09-13T20:49:12.871Z,14.65
2022-09-13T20:54:17.842Z,15.35
2022-09-13T20:59:23.755Z,15.52
2022-09-13T21:04:28.762Z,16.50
2022-09-13T21:09:33.712Z,16.73
2022-09-13T21:14:37.208Z,16.77
2022-09-13T21:19:41.871Z,17.45
2022-09-13T21:24:45.490Z,17.00
2022-09-13T21:29:50.178Z,16.33
2022-09-13T21:34:54.936Z,16.58
2022-09-13T21:39:59.760Z,17.67
2022-09-13T21:45:03.547Z,17.00
2022-09-13T21:50:08.213Z,17.45
2022-09-13T21:55:12.732Z,17.58
2022-09-13T22:00:17.156Z,17.05
2022-09-13T22:05:22.800Z,16.70
2022-09-13T22:10:26.960Z,17.67
2022-09-13T22:15:31.820Z,17.98
2022-09-13T22:20:39.810Z,17.45
2022-09-13T22:25:45.177Z,18.88
2022-09-13T22:30:50.268Z,18.02
2022-09-13T22:36:02.983Z,19.63
2022-09-13T22:41:10.798Z,19.95
2022-09-13T22:46:38.234Z,20.27
2022-09-13T22:51:45.787Z,19.98
2022-09-13T22:56:50.202Z,21.30
2022-09-13T23:01:55.203Z,22.27
2022-09-13T23:06:59.996Z,19.65
2022-09-13T23:12:05.942Z,23.20
2022-09-13T23:17:10.951Z,21.25
2022-09-13T23:22:15.487Z,20.40
2022-09-13T23:27:20.212Z,18.90
2022-09-13T23:32:25.226Z,18.13
2022-09-13T23:37:30.010Z,19.25
2022-09-13T23:42:34.873Z,22.38
2022-09-13T23:47:38.269Z,22.73
2022-09-13T23:52:43.027Z,22.65
2022-09-13T23:57:47.972Z,25.77
